createdAt,value
2019-04-30T00:00:10.100Z,80.74
2019-04-30T00:02:39.987Z,80.91
2019-04-30T00:05:10.057Z,81.10
2019-04-30T00:07:35.740Z,80.61
2019-04-30T00:10:06.124Z,80.48
2019-04-30T00:12:37.972Z,80.43
2019-04-30T00:15:00.546Z,80.10
2019-04-30T00:17:28.472Z,80.09
2019-04-30T00:19:58.740Z,80.59
2019-04-30T00:22:33.244Z,81.00
2019-04-30T00:24:50.337Z,81.13
2019-04-30T00:27:16.528Z,81.30
2019-04-30T00:29:42.592Z,81.72
2019-04-30T00:32:08.676Z,81.27
2019-04-30T00:34:35.876Z,81.28
2019-04-30T00:37:07.283Z,80.62
2019-04-30T00:39:30.824Z,80.56
2019-04-30T00:41:56.887Z,80.30
2019-04-30T00:44:24.907Z,80.99
2019-04-30T00:46:50.866Z,80.68
2019-04-30T00:49:22.913Z,80.24
2019-04-30T00:51:45.380Z,81.22
2019-04-30T00:54:11.659Z,80.43
2019-04-30T00:56:37.651Z,80.39
2019-04-30T00:59:07.048Z,80.15
2019-04-30T01:01:32.610Z,80.20
2019-04-30T01:03:58.836Z,80.08
2019-04-30T01:06:28.665Z,80.79
2019-04-30T01:08:53.237Z,80.53
2019-04-30T01:11:19.208Z,80.21
2019-04-30T01:13:50.181Z,80.49
2019-04-30T01:16:13.456Z,80.72
2019-04-30T01:18:39.478Z,81.13
2019-04-30T01:21:07.911Z,81.01
2019-04-30T01:23:33.942Z,80.76
2019-04-30T01:26:00.275Z,81.01
2019-04-30T01:28:28.413Z,81.17
2019-04-30T01:31:00.319Z,80.69
2019-04-30T01:33:28.384Z,80.55
2019-04-30T01:35:53.005Z,80.64
2019-04-30T01:38:19.041Z,80.56
2019-04-30T01:40:47.533Z,80.36
2019-04-30T01:43:14.090Z,80.19
2019-04-30T01:45:40.081Z,80.07
2019-04-30T01:48:12.134Z,79.81
2019-04-30T01:50:38.783Z,80.18
2019-04-30T01:53:08.864Z,80.09
2019-04-30T01:55:33.060Z,80.45
2019-04-30T01:57:59.382Z,81.09
2019-04-30T02:00:26.640Z,80.57
2019-04-30T02:02:52.766Z,80.73
2019-04-30T02:05:18.949Z,80.88
2019-04-30T02:07:46.068Z,80.70
2019-04-30T02:10:12.507Z,80.49
2019-04-30T02:12:39.270Z,80.40
2019-04-30T02:15:05.748Z,80.15
2019-04-30T02:17:31.974Z,79.96
2019-04-30T02:19:59.330Z,79.91
2019-04-30T02:22:25.544Z,80.92
2019-04-30T02:24:51.578Z,81.05
2019-04-30T02:27:19.165Z,80.83
2019-04-30T02:29:45.878Z,80.20
2019-04-30T02:32:11.901Z,79.89
2019-04-30T02:34:42.215Z,80.23
2019-04-30T02:37:05.890Z,80.38
2019-04-30T02:39:31.912Z,80.30
2019-04-30T02:41:59.928Z,80.45
2019-04-30T02:44:29.336Z,79.95
2019-04-30T02:47:00.201Z,80.08
2019-04-30T02:49:30.259Z,79.92
2019-04-30T02:51:59.524Z,80.46
2019-04-30T02:54:29.620Z,80.50
2019-04-30T02:56:56.093Z,80.55
2019-04-30T02:59:22.313Z,80.70
2019-04-30T03:01:50.199Z,80.72
2019-04-30T03:04:16.539Z,80.48
2019-04-30T03:06:42.546Z,80.26
2019-04-30T03:09:10.335Z,79.86
2019-04-30T03:11:36.624Z,79.79
2019-04-30T03:14:03.572Z,80.58
2019-04-30T03:16:30.331Z,81.03
2019-04-30T03:18:56.435Z,80.66
2019-04-30T03:21:22.456Z,79.99
2019-04-30T03:23:50.354Z,79.91
2019-04-30T03:26:16.379Z,80.56
2019-04-30T03:28:43.407Z,80.66
2019-04-30T03:31:12.491Z,79.65
2019-04-30T03:33:41.920Z,79.01
2019-04-30T03:36:05.865Z,79.35
2019-04-30T03:38:32.146Z,79.20
2019-04-30T03:41:00.150Z,79.78
2019-04-30T03:43:26.179Z,80.74
2019-04-30T03:45:52.526Z,81.12
2019-04-30T03:48:20.175Z,81.06
2019-04-30T03:50:53.320Z,80.99
2019-04-30T03:53:14.478Z,81.15
2019-04-30T03:55:41.723Z,80.69
2019-04-30T03:58:09.232Z,80.54
2019-04-30T04:00:35.611Z,80.33
2019-04-30T04:03:01.823Z,80.55
2019-04-30T04:05:29.895Z,80.81
2019-04-30T04:07:55.828Z,80.36
2019-04-30T04:10:22.169Z,80.13
2019-04-30T04:12:49.890Z,80.49
2019-04-30T04:15:16.084Z,79.88
2019-04-30T04:17:42.045Z,78.49
2019-04-30T04:20:10.608Z,77.20
2019-04-30T04:22:36.783Z,75.59
2019-04-30T04:25:05.054Z,73.98
2019-04-30T04:27:31.073Z,73.63
2019-04-30T04:30:00.734Z,73.66
2019-04-30T04:32:25.270Z,72.40
2019-04-30T04:34:51.295Z,70.60
2019-04-30T04:37:19.841Z,69.05
2019-04-30T04:39:45.227Z,66.62
2019-04-30T04:42:11.360Z,64.75
2019-04-30T04:44:39.908Z,64.07
2019-04-30T04:47:05.321Z,62.13
2019-04-30T04:49:32.447Z,62.15
2019-04-30T04:51:59.595Z,61.19
2019-04-30T04:54:25.724Z,61.50
2019-04-30T04:56:54.768Z,60.83
2019-04-30T04:59:20.084Z,58.24
2019-04-30T05:01:48.815Z,57.30
2019-04-30T05:04:14.321Z,55.86
2019-04-30T05:06:40.549Z,55.28
2019-04-30T05:09:06.979Z,55.49
2019-04-30T05:11:33.099Z,54.22
2019-04-30T05:13:59.072Z,53.38
2019-04-30T05:16:25.145Z,52.91
2019-04-30T05:18:51.215Z,51.85
2019-04-30T05:21:18.821Z,51.57
2019-04-30T05:23:45.033Z,52.81
2019-04-30T05:26:11.295Z,52.29
2019-04-30T05:28:37.239Z,53.39
2019-04-30T05:31:03.255Z,54.21
2019-04-30T05:33:29.362Z,55.51
2019-04-30T05:35:55.474Z,59.82
2019-04-30T05:38:22.730Z,60.42
2019-04-30T05:40:49.549Z,58.23
2019-04-30T05:43:15.879Z,57.81
2019-04-30T05:45:42.391Z,57.77
2019-04-30T05:48:08.843Z,56.67
2019-04-30T05:50:35.197Z,57.02
2019-04-30T05:53:01.321Z,52.71
2019-04-30T05:55:29.330Z,52.40
2019-04-30T05:57:56.505Z,50.18
2019-04-30T06:00:22.975Z,48.64
2019-04-30T06:02:49.831Z,50.83
2019-04-30T06:05:16.181Z,47.58
2019-04-30T06:07:42.476Z,47.21
2019-04-30T06:10:09.264Z,45.42
2019-04-30T06:12:35.852Z,46.20
2019-04-30T06:15:03.721Z,45.28
2019-04-30T06:17:29.971Z,45.99
2019-04-30T06:19:56.170Z,43.59
2019-04-30T06:22:23.219Z,44.38
2019-04-30T06:24:49.561Z,42.42
2019-04-30T06:27:16.195Z,42.32
2019-04-30T06:29:42.309Z,43.48
2019-04-30T06:32:08.845Z,43.45
2019-04-30T06:34:35.583Z,45.76
2019-04-30T06:37:01.711Z,46.56
2019-04-30T06:39:28.815Z,47.03
2019-04-30T06:42:04.919Z,45.90
2019-04-30T06:44:34.887Z,43.43
2019-04-30T06:46:52.670Z,46.08
2019-04-30T06:49:19.837Z,44.15
2019-04-30T06:51:46.034Z,44.90
2019-04-30T06:54:12.058Z,43.54
2019-04-30T06:56:38.706Z,40.40
2019-04-30T06:59:04.924Z,41.00
2019-04-30T07:01:31.250Z,42.64
2019-04-30T07:04:00.794Z,46.48
2019-04-30T07:06:29.659Z,45.65
2019-04-30T07:08:55.820Z,48.00
2019-04-30T07:11:21.691Z,48.29
2019-04-30T07:13:51.766Z,48.51
2019-04-30T07:16:16.002Z,50.62
2019-04-30T07:18:42.217Z,46.05
2019-04-30T07:21:08.782Z,47.98
2019-04-30T07:23:35.027Z,43.92
2019-04-30T07:26:01.103Z,52.30
2019-04-30T07:28:41.268Z,47.67
2019-04-30T07:31:10.624Z,47.10
2019-04-30T07:33:23.065Z,48.48
2019-04-30T07:35:49.841Z,50.38
2019-04-30T07:38:16.007Z,51.65
2019-04-30T07:40:41.960Z,53.81
2019-04-30T07:43:09.068Z,50.10
2019-04-30T07:45:35.429Z,48.38
2019-04-30T07:48:01.456Z,45.23
2019-04-30T07:50:30.598Z,48.05
2019-04-30T07:53:04.792Z,43.31
2019-04-30T07:55:23.412Z,44.76
2019-04-30T07:57:50.583Z,46.71
2019-04-30T08:00:16.801Z,45.89
2019-04-30T08:02:43.728Z,47.54
2019-04-30T08:05:10.645Z,47.82
2019-04-30T08:07:38.887Z,47.85
2019-04-30T08:10:08.787Z,42.97
2019-04-30T08:12:37.470Z,48.98
2019-04-30T08:15:05.518Z,42.67
2019-04-30T08:17:31.564Z,42.67
2019-04-30T08:19:58.775Z,44.32
2019-04-30T08:22:25.026Z,45.51
2019-04-30T08:24:51.042Z,44.62
2019-04-30T08:27:19.162Z,43.85
2019-04-30T08:29:45.340Z,46.32
2019-04-30T08:32:11.362Z,42.98
2019-04-30T08:34:39.380Z,43.45
2019-04-30T08:37:16.740Z,41.83
2019-04-30T08:39:33.339Z,38.25
2019-04-30T08:41:59.993Z,40.48
2019-04-30T08:44:27.119Z,40.79
2019-04-30T08:46:53.251Z,41.23
2019-04-30T08:49:20.770Z,42.00
2019-04-30T08:51:49.206Z,39.21
2019-04-30T08:54:15.292Z,43.07
2019-04-30T08:56:41.318Z,41.49
2019-04-30T08:59:08.750Z,40.53
2019-04-30T09:01:35.311Z,42.89
2019-04-30T09:04:01.436Z,41.09
2019-04-30T09:06:29.125Z,41.49
2019-04-30T09:08:55.631Z,42.25
2019-04-30T09:11:29.386Z,40.35
2019-04-30T09:13:49.721Z,41.28
2019-04-30T09:16:15.744Z,40.11
2019-04-30T09:18:43.817Z,42.93
2019-04-30T09:21:09.969Z,40.23
2019-04-30T09:23:47.497Z,38.61
2019-04-30T09:26:04.034Z,38.97
2019-04-30T09:28:30.057Z,38.16
2019-04-30T09:30:56.181Z,42.14
2019-04-30T09:33:22.214Z,42.14
2019-04-30T09:35:49.522Z,42.10
2019-04-30T09:38:15.793Z,41.06
2019-04-30T09:40:41.875Z,41.41
2019-04-30T09:43:08.650Z,37.84
2019-04-30T09:45:35.186Z,40.53
2019-04-30T09:48:01.717Z,37.85
2019-04-30T09:50:28.973Z,37.17
2019-04-30T09:52:55.607Z,38.35
2019-04-30T09:55:21.628Z,35.54
2019-04-30T09:57:48.827Z,38.93
2019-04-30T10:00:16.750Z,39.06
2019-04-30T10:02:42.944Z,39.77
2019-04-30T10:05:09.787Z,40.67
2019-04-30T10:07:36.508Z,38.48
2019-04-30T10:10:05.182Z,39.05
2019-04-30T10:12:31.265Z,38.10
2019-04-30T10:14:59.139Z,39.12
2019-04-30T10:17:25.260Z,40.07
2019-04-30T10:19:51.379Z,36.19
2019-04-30T10:22:17.605Z,36.53
2019-04-30T10:24:43.731Z,37.35
2019-04-30T10:27:13.042Z,36.88
2019-04-30T10:29:39.530Z,34.14
2019-04-30T10:32:05.803Z,33.37
2019-04-30T10:34:31.860Z,33.56
2019-04-30T10:36:59.606Z,36.05
2019-04-30T10:39:26.431Z,34.17
2019-04-30T10:41:52.549Z,37.18
2019-04-30T10:44:18.850Z,36.69
2019-04-30T10:46:45.413Z,33.61
2019-04-30T10:49:11.537Z,33.79
2019-04-30T10:51:38.798Z,34.21
2019-04-30T10:54:05.534Z,36.04
2019-04-30T10:56:31.740Z,32.94
2019-04-30T10:58:57.776Z,34.73
2019-04-30T11:01:23.907Z,30.49
2019-04-30T11:03:50.026Z,32.88
2019-04-30T11:06:16.466Z,32.38
2019-04-30T11:08:42.622Z,31.53
2019-04-30T11:11:09.016Z,36.15
2019-04-30T11:13:35.974Z,32.91
2019-04-30T11:16:12.134Z,32.16
2019-04-30T11:18:30.109Z,35.82
2019-04-30T11:20:56.912Z,29.15
2019-04-30T11:23:23.374Z,33.02
2019-04-30T11:25:51.608Z,33.53
2019-04-30T11:28:18.637Z,32.32
2019-04-30T11:30:45.259Z,33.57
2019-04-30T11:33:12.015Z,34.51
2019-04-30T11:35:39.443Z,36.51
2019-04-30T11:38:05.669Z,36.78
2019-04-30T11:40:36.838Z,36.39
2019-04-30T11:43:00.169Z,36.98
2019-04-30T11:45:48.053Z,33.75
2019-04-30T11:48:14.172Z,31.47
2019-04-30T11:50:41.649Z,33.38
2019-04-30T11:53:24.106Z,34.28
2019-04-30T11:55:35.552Z,36.03
2019-04-30T11:58:01.545Z,35.81
2019-04-30T12:00:29.538Z,36.87
2019-04-30T12:02:55.642Z,35.74
2019-04-30T12:05:21.859Z,37.17
2019-04-30T12:07:48.336Z,35.46
2019-04-30T12:10:16.111Z,37.67
2019-04-30T12:12:42.101Z,38.43
2019-04-30T12:15:09.315Z,39.34
2019-04-30T12:17:35.497Z,38.26
2019-04-30T12:20:03.323Z,37.53
2019-04-30T12:22:29.657Z,37.02
2019-04-30T12:25:02.541Z,35.69
2019-04-30T12:27:23.746Z,36.87
2019-04-30T12:29:49.871Z,39.91
2019-04-30T12:32:15.937Z,40.33
2019-04-30T12:34:42.028Z,38.84
2019-04-30T12:37:10.748Z,39.18
2019-04-30T12:39:36.929Z,40.15
2019-04-30T12:42:03.086Z,43.64
2019-04-30T12:44:29.150Z,40.72
2019-04-30T12:46:55.202Z,39.91
2019-04-30T12:49:21.328Z,39.83
2019-04-30T12:51:48.827Z,42.11
2019-04-30T12:54:15.423Z,40.31
2019-04-30T12:56:41.652Z,40.62
2019-04-30T12:59:07.983Z,38.56
2019-04-30T13:01:34.322Z,40.14
2019-04-30T13:04:01.462Z,39.37
2019-04-30T13:06:28.441Z,38.43
2019-04-30T13:08:55.982Z,39.88
2019-04-30T13:11:23.032Z,39.62
2019-04-30T13:13:50.565Z,39.04
2019-04-30T13:16:17.171Z,38.18
2019-04-30T13:18:45.173Z,39.41
2019-04-30T13:21:11.297Z,38.54
2019-04-30T13:23:37.319Z,40.25
2019-04-30T13:26:03.565Z,39.61
2019-04-30T13:28:29.648Z,41.17
2019-04-30T13:30:56.818Z,42.19
2019-04-30T13:33:22.944Z,39.68
2019-04-30T13:35:49.096Z,40.45
2019-04-30T13:38:15.093Z,41.13
2019-04-30T13:40:41.114Z,41.66
2019-04-30T13:43:07.143Z,42.42
2019-04-30T13:45:33.392Z,38.55
2019-04-30T13:47:59.392Z,40.48
2019-04-30T13:50:25.468Z,40.74
2019-04-30T13:52:51.535Z,40.70
2019-04-30T13:55:19.206Z,41.40
2019-04-30T13:57:45.358Z,42.29
2019-04-30T14:00:12.226Z,41.19
2019-04-30T14:02:38.597Z,40.04
2019-04-30T14:05:04.824Z,41.11
2019-04-30T14:07:30.950Z,39.72
2019-04-30T14:09:56.921Z,42.84
2019-04-30T14:12:23.202Z,38.33
2019-04-30T14:14:49.427Z,41.69
2019-04-30T14:17:15.758Z,43.55
2019-04-30T14:19:41.780Z,40.20
2019-04-30T14:22:08.993Z,39.51
2019-04-30T14:24:35.362Z,39.57
2019-04-30T14:27:02.743Z,39.37
2019-04-30T14:29:30.165Z,39.35
2019-04-30T14:31:56.398Z,39.59
2019-04-30T14:34:22.524Z,41.46
2019-04-30T14:36:49.322Z,40.30
2019-04-30T14:39:17.138Z,40.27
2019-04-30T14:41:44.356Z,40.23
2019-04-30T14:44:11.572Z,38.92
2019-04-30T14:46:39.686Z,39.98
2019-04-30T14:49:07.024Z,39.76
2019-04-30T14:51:34.216Z,38.94
2019-04-30T14:54:00.356Z,38.62
2019-04-30T14:56:26.561Z,38.83
2019-04-30T14:58:52.683Z,39.01
2019-04-30T15:01:19.368Z,40.38
2019-04-30T15:03:45.754Z,40.09
2019-04-30T15:06:11.951Z,42.98
2019-04-30T15:08:39.429Z,40.77
2019-04-30T15:11:08.935Z,40.08
2019-04-30T15:13:34.704Z,40.15
2019-04-30T15:16:00.667Z,38.14
2019-04-30T15:18:28.888Z,36.86
2019-04-30T15:20:54.978Z,38.97
2019-04-30T15:23:21.847Z,38.74
2019-04-30T15:25:48.664Z,40.43
2019-04-30T15:28:14.922Z,41.30
2019-04-30T15:30:42.100Z,41.35
2019-04-30T15:33:09.357Z,40.29
2019-04-30T15:35:35.471Z,41.75
2019-04-30T15:38:01.641Z,40.27
2019-04-30T15:40:28.862Z,38.47
2019-04-30T15:42:55.641Z,37.56
2019-04-30T15:45:21.768Z,38.65
2019-04-30T15:47:48.600Z,38.63
2019-04-30T15:50:15.121Z,38.39
2019-04-30T15:52:41.378Z,38.18
2019-04-30T15:55:09.165Z,40.73
2019-04-30T15:57:35.620Z,40.32
2019-04-30T16:00:06.533Z,40.24
2019-04-30T16:02:32.929Z,39.94
2019-04-30T16:04:59.903Z,40.18
2019-04-30T16:07:26.103Z,39.14
2019-04-30T16:09:52.230Z,40.13
2019-04-30T16:12:20.134Z,40.45
2019-04-30T16:14:46.221Z,40.16
2019-04-30T16:17:12.299Z,39.33
2019-04-30T16:19:38.428Z,39.41
2019-04-30T16:22:04.903Z,39.84
2019-04-30T16:24:31.024Z,40.46
2019-04-30T16:26:59.186Z,41.67
2019-04-30T16:29:25.323Z,43.03
2019-04-30T16:31:51.661Z,42.59
2019-04-30T16:34:17.882Z,42.25
2019-04-30T16:36:44.107Z,42.40
2019-04-30T16:39:11.463Z,42.88
2019-04-30T16:41:40.558Z,43.23
2019-04-30T16:44:05.765Z,42.94
2019-04-30T16:46:31.885Z,42.35
2019-04-30T16:48:58.786Z,41.53
2019-04-30T16:51:24.924Z,42.12
2019-04-30T16:53:51.080Z,43.04
2019-04-30T16:56:18.611Z,42.55
2019-04-30T16:58:44.867Z,42.85
2019-04-30T17:01:10.991Z,42.73
2019-04-30T17:03:38.797Z,43.37
2019-04-30T17:06:05.187Z,42.90
2019-04-30T17:08:31.417Z,43.06
2019-04-30T17:10:57.453Z,43.52
2019-04-30T17:13:23.463Z,43.97
2019-04-30T17:15:49.689Z,43.14
2019-04-30T17:18:15.712Z,44.12
2019-04-30T17:20:41.689Z,44.72
2019-04-30T17:23:09.452Z,44.79
2019-04-30T17:25:35.841Z,44.61
2019-04-30T17:28:02.164Z,45.31
2019-04-30T17:30:29.390Z,45.49
2019-04-30T17:32:55.841Z,46.49
2019-04-30T17:35:21.969Z,46.58
2019-04-30T17:37:48.093Z,46.72
2019-04-30T17:40:14.625Z,46.63
2019-04-30T17:42:41.758Z,46.80
2019-04-30T17:45:09.477Z,46.95
2019-04-30T17:47:35.970Z,47.06
2019-04-30T17:50:04.355Z,47.12
2019-04-30T17:52:30.581Z,47.31
2019-04-30T17:54:59.523Z,47.43
2019-04-30T17:57:32.353Z,48.21
2019-04-30T17:59:53.972Z,48.32
2019-04-30T18:02:20.094Z,48.41
2019-04-30T18:04:46.119Z,48.83
2019-04-30T18:07:12.347Z,49.10
2019-04-30T18:09:38.970Z,49.41
2019-04-30T18:12:05.339Z,50.09
2019-04-30T18:14:32.460Z,50.15
2019-04-30T18:16:59.446Z,50.46
2019-04-30T18:19:25.837Z,50.99
2019-04-30T18:21:51.964Z,50.81
2019-04-30T18:24:19.501Z,51.85
2019-04-30T18:26:45.649Z,52.34
2019-04-30T18:29:11.775Z,52.80
2019-04-30T18:31:37.845Z,52.73
2019-04-30T18:34:03.920Z,53.73
2019-04-30T18:36:30.152Z,54.11
2019-04-30T18:38:56.271Z,54.68
2019-04-30T18:41:22.241Z,55.86
2019-04-30T18:43:48.770Z,56.29
2019-04-30T18:46:14.852Z,57.01
2019-04-30T18:48:41.083Z,57.17
2019-04-30T18:51:23.538Z,57.78
2019-04-30T18:53:35.483Z,58.58
2019-04-30T18:56:01.605Z,59.05
2019-04-30T18:58:39.190Z,60.40
2019-04-30T19:00:56.319Z,60.40
2019-04-30T19:03:22.724Z,58.73
2019-04-30T19:05:49.246Z,58.51
2019-04-30T19:08:15.563Z,58.09
2019-04-30T19:10:41.859Z,57.75
2019-04-30T19:13:08.943Z,58.55
2019-04-30T19:15:48.726Z,59.89
2019-04-30T19:18:03.335Z,60.40
2019-04-30T19:20:29.419Z,61.14
2019-04-30T19:22:55.641Z,61.27
2019-04-30T19:25:21.972Z,62.28
2019-04-30T19:27:48.094Z,62.34
2019-04-30T19:30:14.527Z,62.25
2019-04-30T19:32:40.658Z,62.81
2019-04-30T19:35:09.029Z,62.87
2019-04-30T19:37:35.259Z,63.87
2019-04-30T19:40:01.996Z,63.87
2019-04-30T19:42:29.522Z,64.23
2019-04-30T19:45:00.746Z,64.89
2019-04-30T19:47:23.965Z,64.95
2019-04-30T19:49:49.978Z,65.20
2019-04-30T19:52:16.347Z,64.97
2019-04-30T19:54:42.535Z,65.47
2019-04-30T19:57:10.264Z,64.56
2019-04-30T19:59:36.423Z,64.59
2019-04-30T20:02:02.857Z,65.27
2019-04-30T20:04:35.668Z,65.19
2019-04-30T20:06:56.744Z,65.22
2019-04-30T20:09:23.077Z,65.26
2019-04-30T20:11:49.418Z,65.67
2019-04-30T20:14:15.632Z,65.79
2019-04-30T20:16:41.655Z,66.53
2019-04-30T20:19:09.190Z,66.51
2019-04-30T20:21:45.825Z,66.66
2019-04-30T20:24:03.414Z,66.75
2019-04-30T20:26:29.437Z,66.67
2019-04-30T20:28:56.582Z,66.12
2019-04-30T20:31:22.605Z,66.68
2019-04-30T20:33:49.055Z,66.47
2019-04-30T20:36:16.291Z,66.20
2019-04-30T20:38:42.314Z,66.51
2019-04-30T20:41:09.210Z,66.93
2019-04-30T20:43:35.584Z,67.65
2019-04-30T20:46:01.941Z,68.24
2019-04-30T20:48:29.850Z,67.78
2019-04-30T20:50:56.006Z,67.50
2019-04-30T20:53:22.137Z,67.33
2019-04-30T20:55:49.539Z,67.67
2019-04-30T20:58:16.027Z,67.42
2019-04-30T21:00:42.763Z,67.35
2019-04-30T21:03:09.707Z,67.80
2019-04-30T21:05:36.153Z,68.28
2019-04-30T21:08:02.501Z,68.56
2019-04-30T21:10:29.693Z,68.81
2019-04-30T21:12:56.040Z,67.78
2019-04-30T21:15:22.071Z,67.71
2019-04-30T21:17:48.442Z,67.73
2019-04-30T21:20:16.075Z,67.37
2019-04-30T21:22:42.236Z,68.03
2019-04-30T21:25:09.921Z,67.79
2019-04-30T21:27:36.998Z,67.51
2019-04-30T21:30:06.766Z,67.57
2019-04-30T21:32:32.858Z,67.85
2019-04-30T21:34:58.856Z,68.03
2019-04-30T21:37:24.996Z,67.80
2019-04-30T21:39:51.007Z,68.13
2019-04-30T21:42:17.131Z,67.42
2019-04-30T21:44:43.286Z,67.65
2019-04-30T21:47:09.379Z,67.67
2019-04-30T21:49:36.616Z,67.37
2019-04-30T21:52:03.164Z,66.96
2019-04-30T21:54:30.487Z,67.17
2019-04-30T21:56:56.971Z,66.69
2019-04-30T21:59:24.511Z,66.70
2019-04-30T22:01:51.151Z,66.92
2019-04-30T22:04:17.272Z,67.14
2019-04-30T22:06:43.302Z,66.99
2019-04-30T22:09:09.801Z,67.35
2019-04-30T22:11:39.443Z,67.53
2019-04-30T22:14:05.559Z,68.05
2019-04-30T22:16:31.554Z,67.86
2019-04-30T22:18:57.705Z,67.73
2019-04-30T22:21:23.701Z,67.67
2019-04-30T22:23:49.753Z,68.13
2019-04-30T22:26:15.903Z,68.03
2019-04-30T22:28:42.003Z,67.72
2019-04-30T22:31:08.680Z,67.62
2019-04-30T22:33:34.870Z,67.69
2019-04-30T22:36:00.969Z,68.09
2019-04-30T22:38:28.956Z,67.93
2019-04-30T22:40:54.952Z,67.99
2019-04-30T22:43:21.007Z,67.89
2019-04-30T22:45:47.249Z,68.32
2019-04-30T22:48:13.461Z,68.73
2019-04-30T22:50:39.692Z,68.78
2019-04-30T22:53:05.943Z,68.58
2019-04-30T22:55:32.249Z,68.53
2019-04-30T22:57:58.477Z,69.27
2019-04-30T23:00:25.122Z,69.42
2019-04-30T23:02:51.247Z,69.24
2019-04-30T23:05:17.568Z,69.16
2019-04-30T23:07:43.788Z,69.49
2019-04-30T23:10:10.152Z,69.90
2019-04-30T23:12:36.350Z,69.83
2019-04-30T23:15:04.608Z,69.90
2019-04-30T23:17:31.906Z,69.92
2019-04-30T23:19:57.885Z,69.77
2019-04-30T23:22:23.891Z,69.71
2019-04-30T23:24:49.944Z,69.32
2019-04-30T23:27:16.071Z,69.32
2019-04-30T23:29:42.095Z,69.58
2019-04-30T23:32:08.324Z,69.79
2019-04-30T23:34:34.661Z,69.77
2019-04-30T23:37:01.870Z,69.87
2019-04-30T23:39:29.197Z,69.63
2019-04-30T23:41:55.169Z,69.50
2019-04-30T23:44:21.165Z,69.61
2019-04-30T23:46:47.123Z,69.77
2019-04-30T23:49:13.119Z,70.21
2019-04-30T23:51:39.479Z,70.05
2019-04-30T23:54:05.653Z,70.53
2019-04-30T23:56:31.705Z,70.65
2019-04-30T23:58:57.661Z,70.34
